Terminal Aerodrome Forecast
Issued by NWS

Home | Current Version | Previous Version | Text Only | Print | Product List | Glossary On
Versions: 1 2 3 4 5 6 7 8 9 10 11 12 13 14 15 16 17 18 19 20 21 22
000
FTUS42 KMLB 281528 AAA
TAFFPR
TAF AMD
KFPR 281528Z 2815/0112 07012G18KT 5SM -RA BR BKN015 OVC025
      TEMPO 2815/2818 2SM SHRA BKN008
     FM281800 08014G22KT P6SM VCSH SCT015 BKN025 OVC050
     FM010100 09009KT P6SM VCSH BKN035=

USA.gov is the U.S. government's official web portal to all federal, state and local government web resources and services.